Time;durP1;ratioP1;P1;durP2;ratioP2;P2;SDS_P1;SDS_P2;PMS_P1;PMS_P2;Temp;Humidity;BMP_temperature;BMP_pressure;BME280_temperature;BME280_humidity;BME280_pressure;Samples;Min_cycle;Max_cycle;Signal;HPM_P1;HPM_P2
2021/09/27 00:00:23;;;;;;;13.75;10.05;;;11.00;97.30;;;;;;2081628;28;20177;-65
2021/09/27 00:01:25;;;;;;;15.05;9.80;;;11.10;97.10;;;;;;2081336;28;20255;-65
2021/09/27 00:02:27;;;;;;;13.23;9.70;;;11.00;97.20;;;;;;2081432;28;20174;-65
2021/09/27 00:03:28;;;;;;;15.48;9.68;;;11.00;97.20;;;;;;2081496;28;20201;-65
2021/09/27 00:04:28;;;;;;;16.23;10.87;;;11.00;97.30;;;;;;2081374;28;20220;-65
2021/09/27 00:05:31;;;;;;;14.53;10.27;;;10.90;97.30;;;;;;2081622;28;20268;-65
2021/09/27 00:06:32;;;;;;;15.27;9.80;;;10.90;97.20;;;;;;2081425;28;20177;-65
2021/09/27 00:07:33;;;;;;;14.33;9.97;;;10.90;97.30;;;;;;2081585;28;20177;-64
2021/09/27 00:08:34;;;;;;;14.07;9.23;;;10.90;97.20;;;;;;2081322;28;20174;-64
2021/09/27 00:09:35;;;;;;;14.00;9.68;;;10.90;97.10;;;;;;2081281;28;20181;-64
2021/09/27 00:10:43;;;;;;;12.10;9.33;;;10.80;97.10;;;;;;2081373;28;20180;-65
2021/09/27 00:11:43;;;;;;;12.95;9.48;;;10.80;97.60;;;;;;2080661;28;20256;-64
2021/09/27 00:12:46;;;;;;;12.27;9.13;;;10.70;97.10;;;;;;2080752;28;20180;-64
2021/09/27 00:13:52;;;;;;;17.23;11.25;;;10.70;97.10;;;;;;2080712;28;20201;-65
2021/09/27 00:14:53;;;;;;;21.08;11.85;;;10.70;97.10;;;;;;2080672;28;20205;-63
2021/09/27 00:15:57;;;;;;;19.10;10.93;;;10.70;97.30;;;;;;2081622;28;20226;-64
2021/09/27 00:16:58;;;;;;;17.15;11.27;;;10.60;97.40;;;;;;2081006;28;20191;-65
2021/09/27 00:17:59;;;;;;;15.48;10.90;;;10.60;97.60;;;;;;2080870;28;20177;-66
2021/09/27 00:19:00;;;;;;;17.08;10.13;;;10.60;97.70;;;;;;2081306;28;20264;-65
2021/09/27 00:20:01;;;;;;;19.08;11.38;;;10.60;97.70;;;;;;2081431;28;20173;-64
2021/09/27 00:21:07;;;;;;;17.20;11.20;;;10.60;97.80;;;;;;2081088;28;20198;-65
2021/09/27 00:22:07;;;;;;;15.45;11.07;;;10.60;98.00;;;;;;2081369;28;20633;-64
2021/09/27 00:23:10;;;;;;;19.20;11.00;;;10.60;98.20;;;;;;2081288;28;20273;-63
2021/09/27 00:24:11;;;;;;;17.30;10.93;;;10.60;98.30;;;;;;2080765;28;20191;-65
2021/09/27 00:25:12;;;;;;;18.63;11.33;;;10.60;98.30;;;;;;2080697;28;20576;-65
2021/09/27 00:26:16;;;;;;;18.80;10.93;;;10.60;98.20;;;;;;2081273;28;20276;-64
2021/09/27 00:27:16;;;;;;;16.63;11.18;;;10.60;98.20;;;;;;2081255;28;20221;-64
2021/09/27 00:28:18;;;;;;;16.50;10.97;;;10.60;98.20;;;;;;2081360;28;20189;-64
2021/09/27 00:29:18;;;;;;;17.40;11.80;;;10.70;98.30;;;;;;2079838;28;20176;-64
2021/09/27 00:30:20;;;;;;;17.77;10.87;;;10.60;98.50;;;;;;2080774;28;20664;-64
2021/09/27 00:31:21;;;;;;;18.30;11.63;;;10.70;98.40;;;;;;2080404;28;20173;-64
2021/09/27 00:32:22;;;;;;;17.50;11.32;;;10.70;98.30;;;;;;2080774;28;20181;-64
2021/09/27 00:33:25;;;;;;;21.70;10.97;;;10.60;98.30;;;;;;2081156;28;20544;-64
2021/09/27 00:34:25;;;;;;;17.23;11.63;;;10.70;98.20;;;;;;2081349;28;20672;-64
2021/09/27 00:35:30;;;;;;;26.40;13.27;;;10.70;98.00;;;;;;2081348;28;20252;-64
2021/09/27 00:36:32;;;;;;;17.85;10.43;;;10.60;97.90;;;;;;2080750;28;20518;-65
2021/09/27 00:37:32;;;;;;;16.52;10.93;;;10.60;98.10;;;;;;2072524;28;20181;-64
2021/09/27 00:38:33;;;;;;;14.47;10.07;;;10.50;98.00;;;;;;2080720;28;20169;-64
2021/09/27 00:39:34;;;;;;;16.67;11.20;;;10.50;98.10;;;;;;2081285;28;20188;-64
2021/09/27 00:40:47;;;;;;;18.57;10.47;;;10.40;98.20;;;;;;2081366;28;20191;-64
2021/09/27 00:41:48;;;;;;;14.98;9.68;;;10.40;98.20;;;;;;2080464;28;20191;-64
2021/09/27 00:42:49;;;;;;;16.97;10.23;;;10.40;98.40;;;;;;2080629;28;20231;-64
2021/09/27 00:43:52;;;;;;;18.08;11.70;;;10.40;98.60;;;;;;2081154;28;20559;-64
2021/09/27 00:44:53;;;;;;;16.83;11.13;;;10.40;98.60;;;;;;2081290;28;20195;-64
2021/09/27 00:45:57;;;;;;;17.93;11.20;;;10.40;98.50;;;;;;2080613;28;20191;-64
2021/09/27 00:46:58;;;;;;;22.75;12.65;;;10.30;98.50;;;;;;2080739;28;20562;-65
2021/09/27 00:47:59;;;;;;;19.83;11.53;;;10.40;98.70;;;;;;2081073;28;20639;-63
2021/09/27 00:49:02;;;;;;;32.20;13.65;;;10.40;98.70;;;;;;2081432;28;20185;-64
2021/09/27 00:50:05;;;;;;;23.63;13.65;;;10.40;98.70;;;;;;2081137;28;20263;-64
2021/09/27 00:51:20;;;;;;;18.65;11.45;;;10.40;98.70;;;;;;2080846;28;20780;-64
2021/09/27 00:52:21;;;;;;;22.05;11.45;;;10.40;98.70;;;;;;2080635;28;20659;-64
2021/09/27 00:53:59;;;;;;;19.20;11.67;;;10.40;98.60;;;;;;2080499;28;20228;-64
2021/09/27 00:55:00;;;;;;;20.35;11.20;;;10.40;98.70;;;;;;2080846;28;20225;-66
2021/09/27 00:56:03;;;;;;;17.53;10.77;;;10.50;98.80;;;;;;2080638;28;20227;-64
2021/09/27 00:57:13;;;;;;;20.45;11.32;;;10.40;98.90;;;;;;2080709;28;20492;-65
2021/09/27 00:58:17;;;;;;;20.88;11.65;;;10.40;99.00;;;;;;2080488;28;20231;-65
2021/09/27 00:59:18;;;;;;;25.05;12.57;;;10.40;99.00;;;;;;2080673;28;20173;-64
2021/09/27 01:00:23;;;;;;;20.80;12.20;;;10.40;99.00;;;;;;2080656;28;20691;-65
2021/09/27 01:01:25;;;;;;;27.65;12.65;;;10.50;98.90;;;;;;2080570;28;20169;-63
2021/09/27 01:02:26;;;;;;;36.63;14.18;;;10.50;98.70;;;;;;2080606;28;20256;-64
2021/09/27 01:03:28;;;;;;;29.93;12.43;;;10.50;98.70;;;;;;2080558;28;20200;-65
2021/09/27 01:04:29;;;;;;;24.77;13.20;;;10.50;98.70;;;;;;2081137;28;20773;-64
2021/09/27 01:05:31;;;;;;;36.63;15.80;;;10.60;98.40;;;;;;2081259;28;20387;-64
2021/09/27 01:07:02;;;;;;;21.15;12.18;;;10.60;98.40;;;;;;2080590;28;20181;-64
2021/09/27 01:08:27;;;;;;;21.77;11.48;;;10.60;98.50;;;;;;2076565;28;20171;-64
2021/09/27 01:10:02;;;;;;;18.75;11.50;;;10.50;98.70;;;;;;2073861;28;20193;-64
2021/09/27 01:11:23;;;;;;;17.80;10.73;;;10.50;98.80;;;;;;2075634;28;20285;-65
2021/09/27 01:12:48;;;;;;;18.55;11.18;;;10.50;99.10;;;;;;2072981;28;20589;-64
2021/09/27 01:14:07;;;;;;;19.85;10.88;;;10.50;99.10;;;;;;2072970;28;20197;-64
2021/09/27 01:15:23;;;;;;;20.05;11.45;;;10.50;99.00;;;;;;2072750;28;20739;-65
2021/09/27 01:16:44;;;;;;;17.08;10.80;;;10.50;98.90;;;;;;2072987;28;20196;-64
2021/09/27 01:18:14;;;;;;;19.35;10.80;;;10.50;98.70;;;;;;2072500;28;20220;-64
2021/09/27 01:20:00;;;;;;;17.00;10.05;;;10.50;98.50;;;;;;2068203;28;20189;-66
2021/09/27 01:21:47;;;;;;;15.63;9.32;;;10.60;98.30;;;;;;2072763;28;20177;-65
2021/09/27 01:23:18;;;;;;;17.98;9.52;;;10.60;98.20;;;;;;2072910;28;20655;-64
2021/09/27 01:25:11;;;;;;;18.55;10.23;;;10.50;98.20;;;;;;2072453;28;20180;-65
2021/09/27 01:26:31;;;;;;;15.02;8.38;;;10.50;98.10;;;;;;2071313;28;20240;-64
2021/09/27 01:28:01;;;;;;;14.88;8.80;;;10.40;98.00;;;;;;2066904;28;20167;-64
2021/09/27 01:29:55;;;;;;;12.32;8.63;;;10.40;98.10;;;;;;2072695;28;20220;-64
2021/09/27 01:31:18;;;;;;;13.13;8.52;;;10.40;98.10;;;;;;2072217;28;20644;-64
2021/09/27 01:32:32;;;;;;;12.43;8.00;;;10.30;98.20;;;;;;2058777;28;20233;-65
2021/09/27 01:33:56;;;;;;;15.25;9.68;;;10.30;98.20;;;;;;2072891;28;20201;-64
2021/09/27 01:35:22;;;;;;;12.20;8.55;;;10.20;98.00;;;;;;2072892;28;20236;-64
2021/09/27 01:36:59;;;;;;;13.45;9.07;;;10.20;97.90;;;;;;2072253;28;20633;-64
2021/09/27 01:38:20;;;;;;;15.05;8.93;;;10.10;97.90;;;;;;2072709;28;20182;-65
2021/09/27 01:39:54;;;;;;;12.23;8.30;;;10.10;97.80;;;;;;2072974;28;20166;-64
2021/09/27 01:41:28;;;;;;;11.57;8.07;;;10.10;97.90;;;;;;2068470;28;20200;-63
2021/09/27 01:43:03;;;;;;;13.80;8.30;;;10.00;98.00;;;;;;2069989;28;20188;-64
2021/09/27 01:44:15;;;;;;;14.90;8.75;;;10.00;98.10;;;;;;2070303;28;20750;-64
2021/09/27 01:46:02;;;;;;;14.40;8.40;;;9.90;98.10;;;;;;2073806;28;20170;-64
2021/09/27 01:47:17;;;;;;;13.52;7.85;;;9.90;98.00;;;;;;2079957;28;20172;-65
2021/09/27 01:48:24;;;;;;;18.60;10.05;;;9.90;98.20;;;;;;2080128;28;20252;-64
2021/09/27 01:49:38;;;;;;;16.83;9.52;;;9.90;98.20;;;;;;2074609;28;20170;-64
2021/09/27 01:51:10;;;;;;;23.02;10.10;;;10.00;98.30;;;;;;2073557;28;20723;-64
2021/09/27 01:52:38;;;;;;;60.53;12.30;;;10.00;98.30;;;;;;2067505;28;20228;-64
2021/09/27 01:54:09;;;;;;;34.10;10.98;;;10.00;98.30;;;;;;2069092;28;20205;-65
2021/09/27 01:55:23;;;;;;;54.55;12.73;;;10.00;98.40;;;;;;2069681;28;20206;-64
2021/09/27 01:56:57;;;;;;;30.95;11.57;;;10.00;98.60;;;;;;2073695;28;20165;-64
2021/09/27 01:58:23;;;;;;;24.85;11.73;;;10.00;98.70;;;;;;2077983;28;20215;-65
2021/09/27 01:59:47;;;;;;;25.52;11.32;;;10.00;98.80;;;;;;2078669;28;20165;-65
2021/09/27 02:00:57;;;;;;;24.13;11.90;;;10.00;98.80;;;;;;2073507;28;20178;-63
2021/09/27 02:02:09;;;;;;;26.80;11.63;;;10.00;98.80;;;;;;2070286;28;20181;-65
2021/09/27 02:03:26;;;;;;;27.38;11.77;;;10.00;98.80;;;;;;2074798;28;20177;-65
2021/09/27 02:04:41;;;;;;;33.90;12.23;;;10.10;98.80;;;;;;2073624;28;20164;-65
2021/09/27 02:06:39;;;;;;;30.05;12.48;;;10.10;98.80;;;;;;2075565;28;20191;-65
2021/09/27 02:08:21;;;;;;;42.17;11.05;;;10.10;98.90;;;;;;2071847;28;20204;-64
2021/09/27 02:09:34;;;;;;;75.55;15.27;;;10.10;98.90;;;;;;2065589;28;20231;-65
2021/09/27 02:11:10;;;;;;;146.13;21.48;;;10.00;98.90;;;;;;2073442;28;20178;-64
2021/09/27 02:12:21;;;;;;;21.08;10.77;;;10.00;98.90;;;;;;2070028;28;20228;-64
2021/09/27 02:13:24;;;;;;;137.23;21.83;;;10.10;98.90;;;;;;2074791;28;20201;-64
2021/09/27 02:14:55;;;;;;;81.75;18.83;;;10.00;98.80;;;;;;2081202;28;20184;-65
2021/09/27 02:15:55;;;;;;;55.42;13.68;;;10.00;98.80;;;;;;2074220;28;20228;-64
2021/09/27 02:17:07;;;;;;;33.13;12.63;;;10.00;98.80;;;;;;2074047;28;20676;-66
2021/09/27 02:18:35;;;;;;;21.70;11.02;;;10.00;98.70;;;;;;2073469;28;20162;-65
2021/09/27 02:20:02;;;;;;;19.95;9.98;;;10.00;98.80;;;;;;2073412;28;20179;-66
2021/09/27 02:21:15;;;;;;;14.60;8.73;;;10.00;98.80;;;;;;2076782;28;20578;-65
2021/09/27 02:22:26;;;;;;;52.42;12.80;;;10.00;98.80;;;;;;2073505;28;20194;-64
2021/09/27 02:23:38;;;;;;;22.33;10.38;;;10.00;98.60;;;;;;2074734;28;20205;-64
2021/09/27 02:25:03;;;;;;;16.50;10.20;;;9.90;98.70;;;;;;2073348;28;20303;-64
2021/09/27 02:26:03;;;;;;;19.75;9.48;;;9.90;98.70;;;;;;2076608;28;20211;-65
2021/09/27 02:27:05;;;;;;;17.20;10.37;;;9.90;98.70;;;;;;2073507;28;20200;-64
2021/09/27 02:28:14;;;;;;;20.80;11.65;;;9.90;98.60;;;;;;2073351;28;20597;-64
2021/09/27 02:29:17;;;;;;;22.73;10.43;;;9.90;98.40;;;;;;2079240;28;20204;-64
2021/09/27 02:30:29;;;;;;;17.02;10.60;;;9.90;98.40;;;;;;2081387;28;20180;-64
2021/09/27 02:31:51;;;;;;;17.60;10.60;;;9.90;98.50;;;;;;2074562;28;20181;-64
2021/09/27 02:33:16;;;;;;;14.48;9.73;;;9.80;98.50;;;;;;2081571;28;20173;-65
2021/09/27 02:34:50;;;;;;;17.45;8.93;;;9.80;98.50;;;;;;2082075;28;20647;-65
2021/09/27 02:36:11;;;;;;;13.18;8.55;;;9.80;98.40;;;;;;2081452;28;20176;-65
2021/09/27 02:37:25;;;;;;;15.43;9.75;;;9.70;98.50;;;;;;2081655;28;20624;-66
2021/09/27 02:38:58;;;;;;;13.88;8.38;;;9.70;98.60;;;;;;2081522;28;20191;-64
2021/09/27 02:40:24;;;;;;;13.07;8.57;;;9.70;98.50;;;;;;2077507;28;20509;-66
2021/09/27 02:41:31;;;;;;;17.30;8.63;;;9.70;98.40;;;;;;2076434;28;20297;-64
2021/09/27 02:42:50;;;;;;;16.42;8.55;;;9.60;98.30;;;;;;2074127;28;20231;-65
2021/09/27 02:43:51;;;;;;;18.33;9.02;;;9.60;98.00;;;;;;2075613;28;20197;-65
2021/09/27 02:44:52;;;;;;;13.40;8.20;;;9.60;98.00;;;;;;2081516;28;20185;-64
2021/09/27 02:45:54;;;;;;;13.50;8.10;;;9.50;98.70;;;;;;2081292;28;20177;-66
2021/09/27 02:46:56;;;;;;;23.58;7.88;;;9.40;98.50;;;;;;2073395;28;20260;-66
2021/09/27 02:48:28;;;;;;;33.70;9.23;;;9.30;99.10;;;;;;2081394;28;20206;-65
2021/09/27 02:49:44;;;;;;;28.17;9.90;;;9.20;99.20;;;;;;2081407;28;20503;-64
2021/09/27 02:50:53;;;;;;;21.73;8.82;;;9.20;99.20;;;;;;2075852;28;20227;-64
2021/09/27 02:51:59;;;;;;;24.48;10.18;;;9.30;99.10;;;;;;2074195;28;20263;-64
2021/09/27 02:53:00;;;;;;;22.05;9.63;;;9.30;98.80;;;;;;2081094;28;20643;-64
2021/09/27 02:54:01;;;;;;;25.67;10.10;;;9.30;98.60;;;;;;2081942;28;20189;-63
2021/09/27 02:55:11;;;;;;;23.97;11.20;;;9.30;98.50;;;;;;2081890;28;20204;-64
2021/09/27 02:56:56;;;;;;;20.65;10.38;;;9.30;98.50;;;;;;2081292;28;20166;-64
2021/09/27 02:58:53;;;;;;;19.85;8.90;;;9.30;98.50;;;;;;2078880;28;20192;-63
2021/09/27 03:00:10;;;;;;;15.23;8.77;;;9.20;98.40;;;;;;2064040;28;20590;-64
2021/09/27 03:01:36;;;;;;;13.57;8.25;;;9.20;98.50;;;;;;2064444;28;20182;-65
2021/09/27 03:03:08;;;;;;;12.23;8.35;;;9.20;98.30;;;;;;2064523;28;20243;-64
2021/09/27 03:04:50;;;;;;;14.45;8.38;;;9.20;98.10;;;;;;2064632;28;20306;-64
2021/09/27 03:06:27;;;;;;;13.27;7.95;;;9.20;98.20;;;;;;2077286;28;20188;-65
2021/09/27 03:08:13;;;;;;;11.52;7.70;;;9.10;98.30;;;;;;2073646;28;20296;-64
2021/09/27 03:09:27;;;;;;;11.95;7.55;;;9.10;98.50;;;;;;2073632;28;20256;-64
2021/09/27 03:10:52;;;;;;;14.32;8.73;;;9.10;98.60;;;;;;2073031;28;20319;-65
2021/09/27 03:12:13;;;;;;;12.52;7.55;;;9.00;98.60;;;;;;2067941;28;20174;-64
2021/09/27 03:13:26;;;;;;;13.45;7.55;;;9.00;98.70;;;;;;2073028;28;20200;-64
2021/09/27 03:14:51;;;;;;;13.10;8.13;;;9.00;98.60;;;;;;2073684;28;20246;-64
2021/09/27 03:16:12;;;;;;;15.88;8.45;;;9.00;98.60;;;;;;2073669;28;20205;-65
2021/09/27 03:17:25;;;;;;;13.15;8.10;;;8.90;98.60;;;;;;2072935;28;20178;-64
2021/09/27 03:18:46;;;;;;;11.85;8.02;;;9.00;98.60;;;;;;2066426;28;20167;-65
2021/09/27 03:20:22;;;;;;;16.92;9.00;;;8.90;98.60;;;;;;2073226;28;20521;-64
2021/09/27 03:21:47;;;;;;;10.85;7.25;;;8.90;98.50;;;;;;2072554;28;20180;-63
2021/09/27 03:23:17;;;;;;;13.07;8.05;;;8.90;99.00;;;;;;2073154;28;20164;-65
2021/09/27 03:24:56;;;;;;;12.90;7.93;;;8.90;98.50;;;;;;2072867;28;20168;-64
2021/09/27 03:26:25;;;;;;;12.38;7.38;;;8.90;98.40;;;;;;2064905;28;20558;-64
2021/09/27 03:27:56;;;;;;;12.35;7.22;;;8.90;98.40;;;;;;2073008;28;20216;-65
2021/09/27 03:29:05;;;;;;;10.88;7.28;;;8.90;98.40;;;;;;2073436;28;20220;-64
2021/09/27 03:30:50;;;;;;;14.95;7.90;;;8.90;98.30;;;;;;2073730;28;20196;-64
2021/09/27 03:32:23;;;;;;;11.98;7.10;;;8.80;98.20;;;;;;2073645;28;20185;-64
2021/09/27 03:34:27;;;;;;;10.55;7.15;;;8.90;98.10;;;;;;2073029;28;20609;-65
2021/09/27 03:35:39;;;;;;;8.95;6.38;;;8.90;98.30;;;;;;2072917;28;20236;-64
2021/09/27 03:37:01;;;;;;;12.70;7.05;;;8.80;98.40;;;;;;2073415;28;20209;-64
2021/09/27 03:38:49;;;;;;;10.98;7.03;;;8.80;98.30;;;;;;2073189;28;20186;-66
2021/09/27 03:40:04;;;;;;;13.13;6.22;;;8.90;98.30;;;;;;2072806;28;20279;-64
2021/09/27 03:41:30;;;;;;;12.07;7.38;;;8.90;98.10;;;;;;2072844;28;20192;-63
2021/09/27 03:43:21;;;;;;;13.23;7.72;;;8.90;98.10;;;;;;2072844;28;20640;-65
2021/09/27 03:44:47;;;;;;;13.90;8.50;;;8.80;98.40;;;;;;2071590;28;20176;-65
2021/09/27 03:46:25;;;;;;;14.27;8.02;;;8.70;98.60;;;;;;2072909;28;20170;-66
2021/09/27 03:47:41;;;;;;;14.52;8.95;;;8.70;98.70;;;;;;2072866;28;20158;-64
2021/09/27 03:48:59;;;;;;;13.40;8.48;;;8.70;98.80;;;;;;2066902;28;20172;-65
2021/09/27 03:50:16;;;;;;;14.23;9.38;;;8.70;98.80;;;;;;2066965;28;20177;-64
2021/09/27 03:51:27;;;;;;;13.88;9.23;;;8.70;98.80;;;;;;2066774;28;20263;-64
2021/09/27 03:52:41;;;;;;;15.88;9.23;;;8.70;98.60;;;;;;2072760;28;20646;-65
2021/09/27 03:53:54;;;;;;;11.82;8.55;;;8.70;98.60;;;;;;2070893;28;20205;-64
2021/09/27 03:55:25;;;;;;;14.57;9.30;;;8.70;98.50;;;;;;2074486;28;20291;-64
2021/09/27 03:56:38;;;;;;;16.95;10.65;;;8.70;98.30;;;;;;2076844;28;20164;-65
2021/09/27 03:58:09;;;;;;;22.83;10.93;;;8.70;98.10;;;;;;2081271;28;20206;-64
2021/09/27 03:59:41;;;;;;;15.38;8.35;;;8.70;98.10;;;;;;2078322;28;20560;-63
2021/09/27 04:00:57;;;;;;;14.18;8.40;;;8.70;98.30;;;;;;2080880;28;20694;-64
2021/09/27 04:02:05;;;;;;;10.77;7.78;;;8.60;98.50;;;;;;2074757;28;20301;-63
2021/09/27 04:03:06;;;;;;;12.73;8.63;;;8.60;98.50;;;;;;2073617;28;20193;-64
2021/09/27 04:04:33;;;;;;;12.57;8.52;;;8.60;98.60;;;;;;2081080;28;20210;-64
2021/09/27 04:06:06;;;;;;;16.13;10.50;;;8.50;98.70;;;;;;2081013;28;20174;-64
2021/09/27 04:07:18;;;;;;;17.90;10.93;;;8.50;98.90;;;;;;2077288;28;20730;-64
2021/09/27 04:09:08;;;;;;;18.50;10.80;;;8.50;99.20;;;;;;2080999;28;20702;-64
2021/09/27 04:10:24;;;;;;;17.27;10.60;;;8.40;99.30;;;;;;2078190;28;20200;-65
2021/09/27 04:11:42;;;;;;;25.63;11.93;;;8.40;99.20;;;;;;2080882;28;20271;-64
2021/09/27 04:13:03;;;;;;;18.75;9.80;;;8.40;99.60;;;;;;2081789;28;20177;-64
2021/09/27 04:14:46;;;;;;;18.08;10.38;;;8.50;99.20;;;;;;2081139;28;20172;-65
2021/09/27 04:16:08;;;;;;;16.05;10.15;;;8.50;99.20;;;;;;2081180;28;20188;-65
2021/09/27 04:17:35;;;;;;;15.30;9.48;;;8.50;99.10;;;;;;2080700;28;20521;-66
2021/09/27 04:18:57;;;;;;;14.38;10.10;;;8.50;98.90;;;;;;2081027;28;20181;-65
2021/09/27 04:20:09;;;;;;;19.35;10.38;;;8.50;98.80;;;;;;2080781;28;20176;-65
2021/09/27 04:21:20;;;;;;;15.88;10.18;;;8.50;98.60;;;;;;2073718;28;20173;-65
2021/09/27 04:22:40;;;;;;;14.50;9.65;;;8.50;98.60;;;;;;2073884;28;20192;-66
2021/09/27 04:23:56;;;;;;;16.05;9.68;;;8.50;98.40;;;;;;2080982;28;20230;-63
2021/09/27 04:25:38;;;;;;;16.30;10.32;;;8.50;98.30;;;;;;2081443;28;20157;-64
2021/09/27 04:27:27;;;;;;;15.05;9.40;;;8.50;98.30;;;;;;2081384;28;20749;-65
2021/09/27 04:29:01;;;;;;;15.35;9.80;;;8.40;98.40;;;;;;2081271;28;20170;-64
2021/09/27 04:30:30;;;;;;;14.63;9.35;;;8.40;98.60;;;;;;2081165;28;20213;-65
2021/09/27 04:31:58;;;;;;;14.73;9.23;;;8.40;98.40;;;;;;2080490;28;20577;-65
2021/09/27 04:33:45;;;;;;;12.18;9.23;;;8.40;98.20;;;;;;2076161;28;20219;-65
2021/09/27 04:35:15;;;;;;;16.00;9.25;;;8.30;98.50;;;;;;2081153;28;20193;-65
2021/09/27 04:36:37;;;;;;;14.23;8.55;;;8.30;98.60;;;;;;2072014;28;20189;-65
2021/09/27 04:37:38;;;;;;;15.07;9.60;;;8.30;98.70;;;;;;2088941;28;20223;-65
2021/09/27 04:38:39;;;;;;;15.55;9.18;;;8.30;98.80;;;;;;2080602;28;20550;-64
2021/09/27 04:39:40;;;;;;;15.85;10.50;;;8.30;98.90;;;;;;2080945;28;20177;-64
2021/09/27 04:41:11;;;;;;;16.33;9.00;;;8.20;98.80;;;;;;2088829;28;20176;-64
2021/09/27 04:42:39;;;;;;;12.95;8.38;;;8.30;98.60;;;;;;2081302;28;20171;-66
2021/09/27 04:43:49;;;;;;;12.93;8.50;;;8.30;98.50;;;;;;2081111;28;20197;-65
2021/09/27 04:45:14;;;;;;;11.38;8.48;;;8.30;98.40;;;;;;2081190;28;20179;-64
2021/09/27 04:46:48;;;;;;;12.20;8.45;;;8.40;98.40;;;;;;2081215;28;20548;-64
2021/09/27 04:47:57;;;;;;;12.63;8.07;;;8.30;98.60;;;;;;2081359;28;20172;-64
2021/09/27 04:49:25;;;;;;;13.98;8.50;;;8.30;98.70;;;;;;2081245;28;20178;-65
2021/09/27 04:50:37;;;;;;;11.15;7.75;;;8.30;98.80;;;;;;2081076;28;20206;-65
2021/09/27 04:52:05;;;;;;;11.07;7.55;;;8.30;98.70;;;;;;2081095;28;20260;-64
2021/09/27 04:53:17;;;;;;;12.52;8.18;;;8.30;98.50;;;;;;2081290;28;20173;-63
2021/09/27 04:54:55;;;;;;;14.45;8.07;;;8.30;98.40;;;;;;2081217;28;20258;-63
2021/09/27 04:56:38;;;;;;;12.85;8.20;;;8.30;98.30;;;;;;2080623;28;20175;-63
2021/09/27 04:58:03;;;;;;;11.00;7.13;;;8.20;98.20;;;;;;2080767;28;20176;-63
2021/09/27 04:59:13;;;;;;;13.52;7.78;;;8.20;98.30;;;;;;2072453;28;20180;-63
2021/09/27 05:00:21;;;;;;;19.88;10.18;;;8.20;98.50;;;;;;2073574;28;20178;-65
2021/09/27 05:01:55;;;;;;;17.30;9.73;;;8.10;98.70;;;;;;2072204;28;20169;-65
2021/09/27 05:03:48;;;;;;;15.77;9.20;;;8.10;98.70;;;;;;2068563;28;20172;-65
2021/09/27 05:05:07;;;;;;;14.32;8.38;;;8.10;98.70;;;;;;2071357;28;20220;-64
2021/09/27 05:06:41;;;;;;;11.90;7.55;;;8.10;98.60;;;;;;2066820;28;20232;-65
2021/09/27 05:08:28;;;;;;;12.18;7.68;;;8.10;98.30;;;;;;2068908;28;20687;-63
2021/09/27 05:10:10;;;;;;;11.40;6.60;;;8.10;98.30;;;;;;2053882;28;20189;-64
2021/09/27 05:12:14;;;;;;;10.43;6.53;;;8.10;98.40;;;;;;2053126;28;20173;-63
2021/09/27 05:13:30;;;;;;;10.65;7.03;;;8.00;98.60;;;;;;2072827;28;20236;-64
2021/09/27 05:15:11;;;;;;;13.02;7.85;;;8.00;98.50;;;;;;2073054;28;20291;-64
2021/09/27 05:16:13;;;;;;;16.58;7.70;;;8.00;98.40;;;;;;2074397;28;20193;-64
2021/09/27 05:17:49;;;;;;;14.38;7.63;;;8.00;98.40;;;;;;2073979;28;20206;-63
2021/09/27 05:19:22;;;;;;;10.23;6.60;;;8.00;98.30;;;;;;2078823;28;20182;-65
2021/09/27 05:21:05;;;;;;;10.90;6.13;;;8.00;98.90;;;;;;2073906;28;20168;-63
2021/09/27 05:22:49;;;;;;;9.60;6.40;;;8.00;98.20;;;;;;2074144;28;20666;-63
2021/09/27 05:24:16;;;;;;;9.52;6.22;;;8.00;98.30;;;;;;2074456;28;20209;-64
2021/09/27 05:25:54;;;;;;;13.57;7.88;;;8.00;98.40;;;;;;2074572;28;20192;-65
2021/09/27 05:27:43;;;;;;;10.73;6.80;;;7.90;98.40;;;;;;2074482;28;20551;-64
2021/09/27 05:29:13;;;;;;;8.90;6.00;;;7.90;98.50;;;;;;2074543;28;20592;-63
2021/09/27 05:30:43;;;;;;;10.75;6.85;;;8.00;98.30;;;;;;2073874;28;20253;-63
2021/09/27 05:32:21;;;;;;;8.52;6.30;;;8.00;98.30;;;;;;2073975;28;20183;-64
2021/09/27 05:33:44;;;;;;;9.82;6.68;;;8.00;98.80;;;;;;2074442;28;20201;-64
2021/09/27 05:35:27;;;;;;;12.27;6.95;;;8.10;98.30;;;;;;2074317;28;20672;-63
2021/09/27 05:36:57;;;;;;;10.55;6.72;;;8.10;98.40;;;;;;2074333;28;20685;-63
2021/09/27 05:38:18;;;;;;;12.48;7.63;;;8.00;98.40;;;;;;2074482;28;20179;-64
2021/09/27 05:40:05;;;;;;;14.35;7.82;;;8.00;98.60;;;;;;2074603;28;20162;-63
2021/09/27 05:41:20;;;;;;;11.82;7.00;;;8.00;98.50;;;;;;2074117;28;20261;-64
2021/09/27 05:43:02;;;;;;;11.25;7.28;;;8.00;98.40;;;;;;2073813;28;20154;-63
2021/09/27 05:44:47;;;;;;;10.00;6.35;;;8.10;98.30;;;;;;2079434;28;20706;-64
2021/09/27 05:46:21;;;;;;;12.90;7.57;;;8.10;98.30;;;;;;2069288;28;20193;-63
2021/09/27 05:48:02;;;;;;;15.00;7.60;;;8.10;98.30;;;;;;2074032;28;20607;-63
2021/09/27 05:49:22;;;;;;;12.82;7.20;;;8.10;98.20;;;;;;2073784;28;20646;-63
2021/09/27 05:50:35;;;;;;;12.98;7.93;;;8.20;98.10;;;;;;2068017;28;20175;-62
2021/09/27 05:51:54;;;;;;;14.60;8.10;;;8.20;98.00;;;;;;2067048;28;20208;-63
2021/09/27 05:53:24;;;;;;;13.00;7.68;;;8.20;98.00;;;;;;2073783;28;20255;-64
2021/09/27 05:54:53;;;;;;;12.15;6.63;;;8.20;98.00;;;;;;2074450;28;20168;-65
2021/09/27 05:56:08;;;;;;;12.07;7.45;;;8.20;98.00;;;;;;2073652;28;20177;-63
2021/09/27 05:57:30;;;;;;;11.10;6.90;;;8.30;98.10;;;;;;2075179;28;20641;-63
2021/09/27 05:59:04;;;;;;;9.35;6.25;;;8.30;98.10;;;;;;2082063;28;20169;-63
2021/09/27 06:00:18;;;;;;;8.68;5.60;;;8.30;98.00;;;;;;2081846;28;20193;-64
2021/09/27 06:01:54;;;;;;;10.35;6.68;;;8.30;98.00;;;;;;2075281;28;20166;-63
2021/09/27 06:03:34;;;;;;;8.15;5.47;;;8.40;98.10;;;;;;2082133;28;20533;-63
2021/09/27 06:05:07;;;;;;;9.90;5.75;;;8.40;98.20;;;;;;2081718;28;20573;-64
2021/09/27 06:06:53;;;;;;;9.80;5.63;;;8.40;98.20;;;;;;2077746;28;20270;-64
2021/09/27 06:08:14;;;;;;;9.00;5.80;;;8.50;98.30;;;;;;2065757;28;20567;-63
2021/09/27 06:09:45;;;;;;;10.35;5.63;;;8.50;98.20;;;;;;2081816;28;20595;-65
2021/09/27 06:11:40;;;;;;;7.97;5.57;;;8.50;98.30;;;;;;2082206;28;20179;-63
2021/09/27 06:12:53;;;;;;;8.35;4.88;;;8.60;98.40;;;;;;2079536;28;20287;-64
2021/09/27 06:13:56;;;;;;;7.18;5.18;;;8.60;98.60;;;;;;2075251;28;20721;-65
2021/09/27 06:15:01;;;;;;;8.38;5.45;;;8.60;98.50;;;;;;2081617;28;20202;-64
2021/09/27 06:16:17;;;;;;;8.73;5.72;;;8.60;98.50;;;;;;2081649;28;20185;-66
2021/09/27 06:17:50;;;;;;;8.68;5.78;;;8.70;98.50;;;;;;2075653;28;20215;-65
2021/09/27 06:19:21;;;;;;;9.13;5.93;;;8.70;98.50;;;;;;2082059;28;20165;-64
2021/09/27 06:21:00;;;;;;;10.77;6.47;;;8.80;98.50;;;;;;2082163;28;20231;-64
2021/09/27 06:22:27;;;;;;;7.53;4.80;;;8.90;98.40;;;;;;2064143;28;20713;-65
2021/09/27 06:24:04;;;;;;;8.10;5.75;;;8.90;98.40;;;;;;2079180;28;20209;-64
2021/09/27 06:25:18;;;;;;;9.05;6.25;;;8.90;98.40;;;;;;2077447;28;20234;-63
2021/09/27 06:26:24;;;;;;;12.93;6.85;;;8.90;98.40;;;;;;2081967;28;20171;-63
2021/09/27 06:27:58;;;;;;;12.23;7.07;;;8.90;98.50;;;;;;2080641;28;20168;-64
2021/09/27 06:29:14;;;;;;;9.50;6.07;;;8.90;98.60;;;;;;2081836;28;20199;-65
2021/09/27 06:30:50;;;;;;;8.55;5.93;;;8.90;98.70;;;;;;2081702;28;20175;-64
2021/09/27 06:32:12;;;;;;;8.43;6.32;;;9.00;98.60;;;;;;2077522;28;20262;-64
2021/09/27 06:33:36;;;;;;;9.80;6.70;;;8.90;98.80;;;;;;2081635;28;20205;-63
2021/09/27 06:34:48;;;;;;;9.85;6.75;;;8.90;99.00;;;;;;2081364;28;20185;-64
2021/09/27 06:35:52;;;;;;;9.73;6.00;;;9.00;99.10;;;;;;2074936;28;20200;-63
2021/09/27 06:36:57;;;;;;;11.70;7.40;;;9.00;99.00;;;;;;2073611;28;20181;-64
2021/09/27 06:38:05;;;;;;;9.98;6.60;;;9.10;98.90;;;;;;2074180;28;20224;-64
2021/09/27 06:39:16;;;;;;;10.48;6.90;;;9.10;98.80;;;;;;2081527;28;20635;-64
2021/09/27 06:40:18;;;;;;;9.60;7.15;;;9.20;98.80;;;;;;2082123;28;20192;-63
2021/09/27 06:41:23;;;;;;;9.43;6.45;;;9.20;98.70;;;;;;2080789;28;20483;-63
2021/09/27 06:42:24;;;;;;;9.50;7.15;;;9.20;98.70;;;;;;2081412;28;20249;-65
2021/09/27 06:43:26;;;;;;;9.90;6.73;;;9.20;98.70;;;;;;2081987;28;20270;-64
2021/09/27 06:44:27;;;;;;;9.98;6.60;;;9.30;98.90;;;;;;2082095;28;20173;-63
2021/09/27 06:45:28;;;;;;;9.75;7.25;;;9.30;98.60;;;;;;2081825;28;20283;-65
2021/09/27 06:46:29;;;;;;;11.80;7.23;;;9.30;98.40;;;;;;2082091;28;20184;-63
2021/09/27 06:47:30;;;;;;;9.67;6.83;;;9.40;98.40;;;;;;2081884;28;20211;-64
2021/09/27 06:48:30;;;;;;;8.60;6.37;;;9.40;98.20;;;;;;2082039;28;20267;-65
2021/09/27 06:49:31;;;;;;;10.50;6.83;;;9.40;98.20;;;;;;2081895;28;20215;-65
2021/09/27 06:50:32;;;;;;;10.03;6.80;;;9.50;98.30;;;;;;2082088;28;20607;-63